Ryuhomaru — JD2639 — position and weather

sailwx.info

Track history (hours):
 
Tides and Currents Weather Stations Pressure Air Temp Water Temp Dewpoint Dewpoint Depression Visibility Wind Speed Wind Dir Waves Ship Positions

Ryuhomaru

Last reported at 2016-Jul-24 07:29 UTC. Time now 2016-Jul-24 08:48 UTC.
Position N 34°33' E 135°25'.

Length 42 m; draft 3.5 m.

Type: Tug. MMSI: 431000586.

Date/timePositionNaut miles runAvg speedWind from/ knotsBaromVisibWave heightAir tempDewpointWater temp
2016-Jul-24 07:29N 34°33' E 135°25'5 5.7
2016-Jul-24 06:33N 34°39' E 135°24'1 0.9
2016-Jul-24 05:33N 34°40' E 135°24'0 0.0
2016-Jul-24 04:29N 34°40' E 135°24'4 4.1
2016-Jul-24 03:33N 34°36' E 135°24'0 0.0
2016-Jul-24 02:33N 34°36' E 135°24'0 0.0
2016-Jul-24 01:33N 34°36' E 135°24'3 2.7
2016-Jul-24 00:33N 34°33' E 135°25'1 1.0
2016-Jul-23 23:33N 34°33' E 135°24'3 2.6
2016-Jul-23 22:33N 34°34' E 135°21'5 0.1
2016-Jul-22 05:33N 34°33' E 135°27'0 0.0
2016-Jul-22 04:19N 34°33' E 135°27'2 2.7
2016-Jul-22 03:31N 34°32' E 135°25'2 1.7
2016-Jul-22 02:31N 34°33' E 135°24'2 2.1
2016-Jul-22 01:33N 34°33' E 135°26'3 0.2
2016-Jul-21 07:33N 34°36' E 135°24'3 3.0
2016-Jul-21 06:32N 34°38' E 135°26'0 0.4
2016-Jul-21 05:33N 34°38' E 135°27'4 3.8
2016-Jul-21 04:33N 34°35' E 135°24'2 1.6
2016-Jul-21 03:19N 34°33' E 135°25'2 0.4
2016-Jul-20 22:29N 34°33' E 135°27'3 0.1
2016-Jul-20 04:33N 34°33' E 135°24'2 2.0
2016-Jul-20 03:30N 34°33' E 135°26'1 0.1
2016-Jul-19 23:30N 34°33' E 135°27'2 0.1
2016-Jul-19 04:30N 34°33' E 135°25'3 3.6
2016-Jul-19 03:33N 34°34' E 135°21'4 2.9
2016-Jul-19 02:09N 34°31' E 135°24'0 0.0
2016-Jul-19 01:29N 34°31' E 135°24'3 3.5
2016-Jul-19 00:33N 34°33' E 135°26'0 0.0
2016-Jul-18 23:33N 34°33' E 135°26'1 0.5
2016-Jul-18 22:33N 34°33' E 135°27'0 0.0
2016-Jul-17 09:32N 34°33' E 135°27'1 0.5
2016-Jul-17 08:29N 34°33' E 135°26'1 1.1
2016-Jul-17 07:33N 34°33' E 135°25'3 3.3
2016-Jul-17 06:33N 34°34' E 135°21'5 1.6
2016-Jul-17 03:32N 34°33' E 135°27'0 0.5
2016-Jul-17 02:32N 34°33' E 135°26'1 0.5
2016-Jul-17 01:33N 34°33' E 135°27'0 0.0
2016-Jul-17 00:33N 34°33' E 135°27'0 0.0
2016-Jul-16 23:33N 34°33' E 135°27'0 0.0
2016-Jul-16 07:33N 34°33' E 135°27'0 0.0
2016-Jul-16 04:16N 34°33' E 135°27'0 0.0
2016-Jul-16 03:31N 34°33' E 135°27'0 0.0
2016-Jul-16 02:22N 34°33' E 135°27'0 0.0
2016-Jul-16 01:32N 34°33' E 135°27'0 0.0
2016-Jul-16 00:33N 34°33' E 135°27'0 0.0
2016-Jul-15 23:31N 34°33' E 135°27'1 1.4
2016-Jul-15 22:32N 34°33' E 135°25'1 0.9
2016-Jul-15 21:33N 34°33' E 135°26'1 0.5
2016-Jul-15 20:27N 34°33' E 135°27'0 0.0
2016-Jul-15 07:13N 34°33' E 135°27'2 2.7
2016-Jul-15 06:22N 34°34' E 135°24'0 0.6
2016-Jul-15 05:33N 34°34' E 135°24'1 0.6
2016-Jul-15 03:20N 34°33' E 135°25'3 4.2
2016-Jul-15 02:33N 34°33' E 135°21'4 4.1
2016-Jul-15 01:33N 34°33' E 135°27'0 0.0
2016-Jul-15 00:31N 34°33' E 135°27'0 0.0
2016-Jul-14 23:29N 34°33' E 135°27'  
Track history (hours):
 
Tides and Currents Weather Stations Pressure Air Temp Water Temp Dewpoint Dewpoint Depression Visibility Wind Speed Wind Dir Waves Ship Positions

Ryuhomaru

Last reported at 2016-Jul-24 07:29 UTC. Time now 2016-Jul-24 08:48 UTC.
Position N 34°33' E 135°25'.

Length 42 m; draft 3.5 m.

Type: Tug. MMSI: 431000586.

Date/timePositionNaut miles runAvg speedWind from/ knotsBaromVisibWave heightAir tempDewpointWater temp
2016-Jul-24 07:29N 34°33' E 135°25'5 5.7
2016-Jul-24 06:33N 34°39' E 135°24'1 0.9
2016-Jul-24 05:33N 34°40' E 135°24'0 0.0
2016-Jul-24 04:29N 34°40' E 135°24'4 4.1
2016-Jul-24 03:33N 34°36' E 135°24'0 0.0
2016-Jul-24 02:33N 34°36' E 135°24'0 0.0
2016-Jul-24 01:33N 34°36' E 135°24'3 2.7
2016-Jul-24 00:33N 34°33' E 135°25'1 1.0
2016-Jul-23 23:33N 34°33' E 135°24'3 2.6
2016-Jul-23 22:33N 34°34' E 135°21'5 0.1
2016-Jul-22 05:33N 34°33' E 135°27'0 0.0
2016-Jul-22 04:19N 34°33' E 135°27'2 2.7
2016-Jul-22 03:31N 34°32' E 135°25'2 1.7
2016-Jul-22 02:31N 34°33' E 135°24'2 2.1
2016-Jul-22 01:33N 34°33' E 135°26'3 0.2
2016-Jul-21 07:33N 34°36' E 135°24'3 3.0
2016-Jul-21 06:32N 34°38' E 135°26'0 0.4
2016-Jul-21 05:33N 34°38' E 135°27'4 3.8
2016-Jul-21 04:33N 34°35' E 135°24'2 1.6
2016-Jul-21 03:19N 34°33' E 135°25'2 0.4
2016-Jul-20 22:29N 34°33' E 135°27'3 0.1
2016-Jul-20 04:33N 34°33' E 135°24'2 2.0
2016-Jul-20 03:30N 34°33' E 135°26'1 0.1
2016-Jul-19 23:30N 34°33' E 135°27'2 0.1
2016-Jul-19 04:30N 34°33' E 135°25'3 3.6
2016-Jul-19 03:33N 34°34' E 135°21'4 2.9
2016-Jul-19 02:09N 34°31' E 135°24'0 0.0
2016-Jul-19 01:29N 34°31' E 135°24'3 3.5
2016-Jul-19 00:33N 34°33' E 135°26'0 0.0
2016-Jul-18 23:33N 34°33' E 135°26'1 0.5
2016-Jul-18 22:33N 34°33' E 135°27'0 0.0
2016-Jul-17 09:32N 34°33' E 135°27'1 0.5
2016-Jul-17 08:29N 34°33' E 135°26'1 1.1
2016-Jul-17 07:33N 34°33' E 135°25'3 3.3
2016-Jul-17 06:33N 34°34' E 135°21'5 1.6
2016-Jul-17 03:32N 34°33' E 135°27'0 0.5
2016-Jul-17 02:32N 34°33' E 135°26'1 0.5
2016-Jul-17 01:33N 34°33' E 135°27'0 0.0
2016-Jul-17 00:33N 34°33' E 135°27'0 0.0
2016-Jul-16 23:33N 34°33' E 135°27'0 0.0
2016-Jul-16 07:33N 34°33' E 135°27'0 0.0
2016-Jul-16 04:16N 34°33' E 135°27'0 0.0
2016-Jul-16 03:31N 34°33' E 135°27'0 0.0
2016-Jul-16 02:22N 34°33' E 135°27'0 0.0
2016-Jul-16 01:32N 34°33' E 135°27'0 0.0
2016-Jul-16 00:33N 34°33' E 135°27'0 0.0
2016-Jul-15 23:31N 34°33' E 135°27'1 1.4
2016-Jul-15 22:32N 34°33' E 135°25'1 0.9
2016-Jul-15 21:33N 34°33' E 135°26'1 0.5
2016-Jul-15 20:27N 34°33' E 135°27'0 0.0
2016-Jul-15 07:13N 34°33' E 135°27'2 2.7
2016-Jul-15 06:22N 34°34' E 135°24'0 0.6
2016-Jul-15 05:33N 34°34' E 135°24'1 0.6
2016-Jul-15 03:20N 34°33' E 135°25'3 4.2
2016-Jul-15 02:33N 34°33' E 135°21'4 4.1
2016-Jul-15 01:33N 34°33' E 135°27'0 0.0
2016-Jul-15 00:31N 34°33' E 135°27'0 0.0
2016-Jul-14 23:29N 34°33' E 135°27'  

Dump ship's entire track history